MSC Ludovica — HPAF — position and weather

sailwx.info

Track history (hours):
 
Tides and Currents Weather Stations Pressure Air Temp Water Temp Dewpoint Dewpoint Depression Visibility Wind Speed Wind Dir Waves Ship Positions

MSC Ludovica

Last reported at 2015-Jan-24 04:33 UTC. Time now 2015-Jan-25 14:20 UTC.
Position N 31°56' W 080°33'.

Length 301 m; draft 11.4 m.

Type: Ship. MMSI: 351248000.

Date/timePositionNaut miles runAvg speedWind from/ knotsBaromVisibWave heightAir tempDewpointWater temp
2015-Jan-24 04:33N 31°56' W 080°33'9 9.2
2015-Jan-24 03:34N 31°58' W 080°43'1212.5
2015-Jan-24 02:33N 32°03' W 080°56'7 7.2
2015-Jan-24 01:33N 32°05' W 081°05'5 4.6
2015-Jan-24 00:33N 32°08' W 081°08'0 0.1
2015-Jan-23 23:33N 32°08' W 081°09'0 0.0
2015-Jan-23 22:33N 32°08' W 081°09'0 0.0
2015-Jan-23 21:33N 32°08' W 081°09'0 0.0
2015-Jan-23 20:33N 32°08' W 081°09'0 0.0
2015-Jan-23 19:33N 32°08' W 081°09'0 0.0
2015-Jan-23 18:33N 32°08' W 081°09'0 0.0
2015-Jan-23 17:33N 32°08' W 081°09'0 0.0
2015-Jan-23 16:33N 32°08' W 081°09'0 0.0
2015-Jan-23 15:33N 32°08' W 081°09'0 0.0
2015-Jan-23 14:33N 32°08' W 081°09'0 0.0
2015-Jan-23 13:33N 32°08' W 081°09'0 0.0
2015-Jan-23 12:33N 32°08' W 081°09'0 0.0
2015-Jan-23 11:33N 32°08' W 081°09'0 0.2
2015-Jan-23 10:34N 32°08' W 081°08'4 4.4
2015-Jan-23 09:34N 32°05' W 081°05'6 5.7
2015-Jan-23 08:34N 32°04' W 080°58'9 9.0
2015-Jan-23 07:34N 32°01' W 080°48'1110.9
2015-Jan-23 06:33N 31°56' W 080°37'9 7.4
2015-Jan-23 05:24N 31°56' W 080°27'911.1
2015-Jan-23 04:33N 31°49' W 080°20'2319.5
2015-Jan-23 03:24N 31°30' W 080°05'1820.8
2015-Jan-23 02:33N 31°13' W 080°02'305 9.2
2015-Jan-21 17:32N 26°11' W 079°14'2021.0
2015-Jan-21 16:34N 25°55' W 079°27'60515.8
2015-Jan-20 02:16N 29°55' W 089°55'10 0.7
2015-Jan-19 11:30N 29°55' W 090°07'5 4.7
2015-Jan-19 10:30N 29°57' W 090°02'7 6.0
2015-Jan-19 09:18N 29°52' W 089°56'  
2015-Jan-16 16:26N 29°13' W 094°33'1213.9
2015-Jan-16 15:33N 29°21' W 094°44'1211.8
2015-Jan-16 14:33N 29°30' W 094°52'9 9.3
2015-Jan-16 13:33N 29°37' W 094°60'0 0.3
2015-Jan-16 12:30N 29°37' W 095°00'0 0.0
2015-Jan-16 11:33N 29°37' W 095°00'0 0.0
2015-Jan-16 10:33N 29°37' W 095°00'0 0.0
2015-Jan-16 09:33N 29°37' W 095°00'0 0.0
2015-Jan-16 08:33N 29°37' W 095°00'0 0.0
2015-Jan-16 07:33N 29°37' W 095°00'0 0.0
2015-Jan-16 06:33N 29°37' W 095°00'0 0.0
2015-Jan-16 05:33N 29°37' W 095°00'0 0.0
2015-Jan-16 04:33N 29°37' W 095°00'0 0.0
2015-Jan-16 03:30N 29°37' W 095°00'0 0.0
2015-Jan-16 02:33N 29°37' W 095°00'0 0.0
2015-Jan-16 01:33N 29°37' W 095°00'0 0.0
2015-Jan-16 00:33N 29°37' W 095°00'0 0.0
2015-Jan-15 23:33N 29°37' W 095°00'0 0.0
2015-Jan-15 22:30N 29°37' W 095°00'0 0.0
2015-Jan-15 21:33N 29°37' W 095°00'0 0.0
2015-Jan-15 20:33N 29°37' W 095°00'0 0.0
2015-Jan-15 19:33N 29°37' W 095°00'0 0.0
2015-Jan-15 18:33N 29°37' W 095°00'0 0.0
2015-Jan-15 17:33N 29°37' W 095°00'0 0.0
2015-Jan-15 16:33N 29°37' W 095°00'0 0.0
2015-Jan-15 15:33N 29°37' W 095°00'0 0.0
2015-Jan-15 14:33N 29°37' W 095°00'0 0.0
2015-Jan-15 13:33N 29°37' W 095°00'0 0.0
2015-Jan-15 12:33N 29°37' W 095°00'0 0.0
2015-Jan-15 11:33N 29°37' W 095°00'1 0.8
2015-Jan-15 10:33N 29°37' W 095°01'7 6.6
2015-Jan-15 09:34N 29°33' W 094°55'10 9.8
2015-Jan-15 08:33N 29°24' W 094°49'  
Track history (hours):
 
Tides and Currents Weather Stations Pressure Air Temp Water Temp Dewpoint Dewpoint Depression Visibility Wind Speed Wind Dir Waves Ship Positions

MSC Ludovica

Last reported at 2015-Jan-24 04:33 UTC. Time now 2015-Jan-25 14:20 UTC.
Position N 31°56' W 080°33'.

Length 301 m; draft 11.4 m.

Type: Ship. MMSI: 351248000.

Date/timePositionNaut miles runAvg speedWind from/ knotsBaromVisibWave heightAir tempDewpointWater temp
2015-Jan-24 04:33N 31°56' W 080°33'9 9.2
2015-Jan-24 03:34N 31°58' W 080°43'1212.5
2015-Jan-24 02:33N 32°03' W 080°56'7 7.2
2015-Jan-24 01:33N 32°05' W 081°05'5 4.6
2015-Jan-24 00:33N 32°08' W 081°08'0 0.1
2015-Jan-23 23:33N 32°08' W 081°09'0 0.0
2015-Jan-23 22:33N 32°08' W 081°09'0 0.0
2015-Jan-23 21:33N 32°08' W 081°09'0 0.0
2015-Jan-23 20:33N 32°08' W 081°09'0 0.0
2015-Jan-23 19:33N 32°08' W 081°09'0 0.0
2015-Jan-23 18:33N 32°08' W 081°09'0 0.0
2015-Jan-23 17:33N 32°08' W 081°09'0 0.0
2015-Jan-23 16:33N 32°08' W 081°09'0 0.0
2015-Jan-23 15:33N 32°08' W 081°09'0 0.0
2015-Jan-23 14:33N 32°08' W 081°09'0 0.0
2015-Jan-23 13:33N 32°08' W 081°09'0 0.0
2015-Jan-23 12:33N 32°08' W 081°09'0 0.0
2015-Jan-23 11:33N 32°08' W 081°09'0 0.2
2015-Jan-23 10:34N 32°08' W 081°08'4 4.4
2015-Jan-23 09:34N 32°05' W 081°05'6 5.7
2015-Jan-23 08:34N 32°04' W 080°58'9 9.0
2015-Jan-23 07:34N 32°01' W 080°48'1110.9
2015-Jan-23 06:33N 31°56' W 080°37'9 7.4
2015-Jan-23 05:24N 31°56' W 080°27'911.1
2015-Jan-23 04:33N 31°49' W 080°20'2319.5
2015-Jan-23 03:24N 31°30' W 080°05'1820.8
2015-Jan-23 02:33N 31°13' W 080°02'305 9.2
2015-Jan-21 17:32N 26°11' W 079°14'2021.0
2015-Jan-21 16:34N 25°55' W 079°27'60515.8
2015-Jan-20 02:16N 29°55' W 089°55'10 0.7
2015-Jan-19 11:30N 29°55' W 090°07'5 4.7
2015-Jan-19 10:30N 29°57' W 090°02'7 6.0
2015-Jan-19 09:18N 29°52' W 089°56'  
2015-Jan-16 16:26N 29°13' W 094°33'1213.9
2015-Jan-16 15:33N 29°21' W 094°44'1211.8
2015-Jan-16 14:33N 29°30' W 094°52'9 9.3
2015-Jan-16 13:33N 29°37' W 094°60'0 0.3
2015-Jan-16 12:30N 29°37' W 095°00'0 0.0
2015-Jan-16 11:33N 29°37' W 095°00'0 0.0
2015-Jan-16 10:33N 29°37' W 095°00'0 0.0
2015-Jan-16 09:33N 29°37' W 095°00'0 0.0
2015-Jan-16 08:33N 29°37' W 095°00'0 0.0
2015-Jan-16 07:33N 29°37' W 095°00'0 0.0
2015-Jan-16 06:33N 29°37' W 095°00'0 0.0
2015-Jan-16 05:33N 29°37' W 095°00'0 0.0
2015-Jan-16 04:33N 29°37' W 095°00'0 0.0
2015-Jan-16 03:30N 29°37' W 095°00'0 0.0
2015-Jan-16 02:33N 29°37' W 095°00'0 0.0
2015-Jan-16 01:33N 29°37' W 095°00'0 0.0
2015-Jan-16 00:33N 29°37' W 095°00'0 0.0
2015-Jan-15 23:33N 29°37' W 095°00'0 0.0
2015-Jan-15 22:30N 29°37' W 095°00'0 0.0
2015-Jan-15 21:33N 29°37' W 095°00'0 0.0
2015-Jan-15 20:33N 29°37' W 095°00'0 0.0
2015-Jan-15 19:33N 29°37' W 095°00'0 0.0
2015-Jan-15 18:33N 29°37' W 095°00'0 0.0
2015-Jan-15 17:33N 29°37' W 095°00'0 0.0
2015-Jan-15 16:33N 29°37' W 095°00'0 0.0
2015-Jan-15 15:33N 29°37' W 095°00'0 0.0
2015-Jan-15 14:33N 29°37' W 095°00'0 0.0
2015-Jan-15 13:33N 29°37' W 095°00'0 0.0
2015-Jan-15 12:33N 29°37' W 095°00'0 0.0
2015-Jan-15 11:33N 29°37' W 095°00'1 0.8
2015-Jan-15 10:33N 29°37' W 095°01'7 6.6
2015-Jan-15 09:34N 29°33' W 094°55'10 9.8
2015-Jan-15 08:33N 29°24' W 094°49'  

Dump ship's entire track history